createdAt,value
2018-02-03T00:00:26.254Z,92912.09
2018-02-03T00:02:52.840Z,92911.13
2018-02-03T00:05:19.455Z,92905.01
2018-02-03T00:07:46.068Z,92908.88
2018-02-03T00:10:13.423Z,92905.27
2018-02-03T00:12:40.042Z,92898.34
2018-02-03T00:15:06.609Z,92896.68
2018-02-03T00:17:33.970Z,92894.61
2018-02-03T00:20:00.571Z,92898.70
2018-02-03T00:22:27.211Z,92896.05
2018-02-03T00:24:53.804Z,92893.69
2018-02-03T00:27:20.453Z,92898.74
2018-02-03T00:29:47.023Z,92899.81
2018-02-03T00:32:13.631Z,92902.47
2018-02-03T00:34:40.206Z,92894.17
2018-02-03T00:37:06.885Z,92895.64
2018-02-03T00:39:33.438Z,92889.97
2018-02-03T00:42:00.007Z,92889.67
2018-02-03T00:44:26.577Z,92892.63
2018-02-03T00:46:53.890Z,92880.34
2018-02-03T00:49:20.501Z,92884.84
2018-02-03T00:51:47.061Z,92880.27
2018-02-03T00:54:13.698Z,92888.72
2018-02-03T00:56:40.343Z,92884.52
2018-02-03T00:59:06.983Z,92884.84
2018-02-03T01:01:33.557Z,92881.08
2018-02-03T01:04:00.166Z,92880.72
2018-02-03T01:06:26.779Z,92882.08
2018-02-03T01:08:53.401Z,92881.83
2018-02-03T01:11:20.029Z,92883.63
2018-02-03T01:13:46.653Z,92886.09
2018-02-03T01:16:13.270Z,92888.72
2018-02-03T01:18:40.591Z,92880.83
2018-02-03T01:21:07.949Z,92884.52
2018-02-03T01:23:35.338Z,92886.09
2018-02-03T01:26:02.658Z,92886.28
2018-02-03T01:28:29.234Z,92890.04
2018-02-03T01:30:55.892Z,92889.82
2018-02-03T01:33:22.540Z,92889.48
2018-02-03T01:35:49.178Z,92882.56
2018-02-03T01:38:15.790Z,92884.11
2018-02-03T01:40:42.443Z,92882.34
2018-02-03T01:43:09.007Z,92877.80
2018-02-03T01:45:35.636Z,92874.92
2018-02-03T01:48:02.230Z,92881.30
2018-02-03T01:50:29.218Z,92874.92
2018-02-03T01:52:55.778Z,92864.12
2018-02-03T01:55:22.354Z,92866.78
2018-02-03T01:57:48.948Z,92862.28
2018-02-03T02:00:15.562Z,92866.92
2018-02-03T02:02:42.150Z,92863.87
2018-02-03T02:05:09.497Z,92861.69
2018-02-03T02:07:36.867Z,92858.19
2018-02-03T02:10:03.602Z,92854.88
2018-02-03T02:12:30.182Z,92852.55
2018-02-03T02:14:56.774Z,92848.35
2018-02-03T02:17:24.122Z,92846.84
2018-02-03T02:19:50.681Z,92850.52
2018-02-03T02:22:17.346Z,92846.17
2018-02-03T02:24:43.933Z,92835.45
2018-02-03T02:27:11.254Z,92836.08
2018-02-03T02:29:37.905Z,92834.16
2018-02-03T02:32:04.552Z,92833.17
2018-02-03T02:34:31.137Z,92828.37
2018-02-03T02:36:57.755Z,92822.58
2018-02-03T02:39:24.333Z,92812.66
2018-02-03T02:41:50.900Z,92813.47
2018-02-03T02:44:18.237Z,92811.59
2018-02-03T02:46:44.894Z,92807.31
2018-02-03T02:49:12.218Z,92799.98
2018-02-03T02:51:38.907Z,92798.61
2018-02-03T02:54:05.521Z,92794.19
2018-02-03T02:56:32.129Z,92786.45
2018-02-03T02:58:58.725Z,92792.65
2018-02-03T03:01:25.327Z,92786.02
2018-02-03T03:03:51.917Z,92788.94
2018-02-03T03:06:18.506Z,92787.88
2018-02-03T03:08:45.841Z,92790.55
2018-02-03T03:11:12.473Z,92784.98
2018-02-03T03:13:39.038Z,92781.59
2018-02-03T03:16:05.629Z,92784.70
2018-02-03T03:18:32.315Z,92786.08
2018-02-03T03:20:59.614Z,92787.84
2018-02-03T03:23:26.201Z,92789.69
2018-02-03T03:25:53.547Z,92792.52
2018-02-03T03:28:20.874Z,92791.48
2018-02-03T03:30:47.442Z,92796.17
2018-02-03T03:33:14.744Z,92798.27
2018-02-03T03:35:41.417Z,92796.57
2018-02-03T03:38:08.042Z,92794.55
2018-02-03T03:40:34.657Z,92792.95
2018-02-03T03:43:01.213Z,92798.27
2018-02-03T03:45:27.781Z,92792.63
2018-02-03T03:47:54.378Z,92794.17
2018-02-03T03:50:20.989Z,92798.52
2018-02-03T03:52:47.616Z,92792.14
2018-02-03T03:55:14.288Z,92796.45
2018-02-03T03:57:40.874Z,92800.77
2018-02-03T04:00:08.205Z,92795.69
2018-02-03T04:02:34.785Z,92792.30
2018-02-03T04:05:01.363Z,92782.86
2018-02-03T04:07:27.986Z,92790.58
2018-02-03T04:09:54.678Z,92790.68
2018-02-03T04:12:21.245Z,92786.33
2018-02-03T04:14:47.825Z,92786.66
2018-02-03T04:17:14.428Z,92791.64
2018-02-03T04:19:41.082Z,92798.09
2018-02-03T04:22:07.646Z,92786.23
2018-02-03T04:24:34.248Z,92791.94
2018-02-03T04:27:00.837Z,92792.89
2018-02-03T04:29:27.439Z,92789.47
2018-02-03T04:31:54.026Z,92787.88
2018-02-03T04:34:20.640Z,92782.46
2018-02-03T04:36:47.992Z,92776.41
2018-02-03T04:39:14.638Z,92783.59
2018-02-03T04:41:41.921Z,92789.23
2018-02-03T04:44:09.521Z,92781.65
2018-02-03T04:46:36.098Z,92785.30
2018-02-03T04:49:02.725Z,92784.94
2018-02-03T04:51:29.330Z,92777.38
2018-02-03T04:53:55.960Z,92777.30
2018-02-03T04:56:23.315Z,92777.83
2018-02-03T04:58:49.901Z,92770.34
2018-02-03T05:01:16.542Z,92769.02
2018-02-03T05:03:43.157Z,92773.55
2018-02-03T05:06:10.490Z,92776.69
2018-02-03T05:08:37.103Z,92775.35
2018-02-03T05:11:03.673Z,92767.84
2018-02-03T05:13:30.977Z,92770.57
2018-02-03T05:15:57.566Z,92777.57
2018-02-03T05:18:24.866Z,92771.30
2018-02-03T05:20:51.452Z,92765.44
2018-02-03T05:23:18.813Z,92766.73
2018-02-03T05:25:46.123Z,92766.58
2018-02-03T05:28:12.701Z,92769.23
2018-02-03T05:30:40.017Z,92768.65
2018-02-03T05:33:06.941Z,92770.85
2018-02-03T05:35:33.530Z,92778.73
2018-02-03T05:38:00.876Z,92776.97
2018-02-03T05:40:27.486Z,92784.05
2018-02-03T05:42:54.158Z,92776.09
2018-02-03T05:45:21.550Z,92775.91
2018-02-03T05:47:48.523Z,92781.06
2018-02-03T05:50:15.114Z,92779.25
2018-02-03T05:52:42.454Z,92783.34
2018-02-03T05:55:09.089Z,92785.04
2018-02-03T05:57:35.906Z,92792.14
2018-02-03T06:00:02.553Z,92793.51
2018-02-03T06:02:29.903Z,92793.91
2018-02-03T06:04:56.509Z,92795.86
2018-02-03T06:07:23.086Z,92805.78
2018-02-03T06:09:50.435Z,92802.06
2018-02-03T06:12:17.019Z,92807.91
2018-02-03T06:14:43.634Z,92812.55
2018-02-03T06:17:10.954Z,92805.87
2018-02-03T06:19:37.595Z,92805.40
2018-02-03T06:22:04.210Z,92802.16
2018-02-03T06:24:30.821Z,92796.36
2018-02-03T06:26:57.419Z,92799.04
2018-02-03T06:29:24.109Z,92805.09
2018-02-03T06:31:52.616Z,92796.05
2018-02-03T06:34:19.961Z,92801.22
2018-02-03T06:36:46.589Z,92800.81
2018-02-03T06:39:14.308Z,92795.65
2018-02-03T06:41:41.013Z,92796.53
2018-02-03T06:44:07.592Z,92796.06
2018-02-03T06:46:34.222Z,92798.13
2018-02-03T06:49:01.701Z,92797.66
2018-02-03T06:51:28.314Z,92804.52
2018-02-03T06:53:55.014Z,92808.13
2018-02-03T06:56:21.636Z,92799.83
2018-02-03T06:58:48.249Z,92802.52
2018-02-03T07:01:14.842Z,92808.15
2018-02-03T07:03:41.517Z,92812.34
2018-02-03T07:06:08.110Z,92811.62
2018-02-03T07:08:34.785Z,92816.20
2018-02-03T07:11:01.387Z,92812.02
2018-02-03T07:13:27.966Z,92819.59
2018-02-03T07:15:54.613Z,92816.80
2018-02-03T07:18:21.190Z,92810.56
2018-02-03T07:20:48.783Z,92810.66
2018-02-03T07:23:16.143Z,92814.27
2018-02-03T07:25:42.764Z,92810.66
2018-02-03T07:28:10.118Z,92815.56
2018-02-03T07:30:37.502Z,92811.61
2018-02-03T07:33:04.146Z,92815.41
2018-02-03T07:35:30.702Z,92821.08
2018-02-03T07:37:57.294Z,92822.44
2018-02-03T07:40:24.720Z,92825.19
2018-02-03T07:42:51.311Z,92824.20
2018-02-03T07:45:17.964Z,92825.58
2018-02-03T07:47:44.603Z,92820.75
2018-02-03T07:50:11.256Z,92822.66
2018-02-03T07:52:37.911Z,92818.33
2018-02-03T07:55:04.630Z,92822.92
2018-02-03T07:57:31.517Z,92821.55
2018-02-03T07:59:58.118Z,92829.31
2018-02-03T08:02:24.685Z,92834.38
2018-02-03T08:04:51.331Z,92835.09
2018-02-03T08:07:18.810Z,92837.30
2018-02-03T08:09:45.699Z,92839.14
2018-02-03T08:12:12.318Z,92837.45
2018-02-03T08:14:39.823Z,92839.16
2018-02-03T08:17:06.574Z,92830.82
2018-02-03T08:19:33.910Z,92831.97
2018-02-03T08:22:01.261Z,92834.46
2018-02-03T08:24:28.722Z,92835.78
2018-02-03T08:26:56.117Z,92834.95
2018-02-03T08:29:22.772Z,92835.11
2018-02-03T08:31:49.640Z,92833.91
2018-02-03T08:34:16.976Z,92834.39
2018-02-03T08:36:43.563Z,92836.17
2018-02-03T08:39:10.898Z,92836.42
2018-02-03T08:41:37.469Z,92830.42
2018-02-03T08:44:04.127Z,92833.83
2018-02-03T08:46:30.768Z,92834.31
2018-02-03T08:48:58.084Z,92833.99
2018-02-03T08:51:24.714Z,92831.64
2018-02-03T08:53:52.097Z,92839.80
2018-02-03T08:56:18.854Z,92839.31
2018-02-03T08:58:45.446Z,92836.50
2018-02-03T09:01:12.063Z,92836.39
2018-02-03T09:03:38.654Z,92829.03
2018-02-03T09:06:05.338Z,92828.59
2018-02-03T09:08:31.937Z,92827.75
2018-02-03T09:10:58.526Z,92828.86
2018-02-03T09:13:25.990Z,92824.05
2018-02-03T09:15:52.589Z,92820.69
2018-02-03T09:18:19.266Z,92817.39
2018-02-03T09:20:46.596Z,92819.63
2018-02-03T09:23:13.972Z,92819.38
2018-02-03T09:25:41.357Z,92809.84
2018-02-03T09:28:09.623Z,92810.97
2018-02-03T09:30:36.218Z,92810.31
2018-02-03T09:33:02.833Z,92809.69
2018-02-03T09:35:29.532Z,92812.05
2018-02-03T09:37:56.111Z,92809.34
2018-02-03T09:40:22.744Z,92804.22
2018-02-03T09:42:49.378Z,92807.33
2018-02-03T09:45:16.255Z,92804.95
2018-02-03T09:47:42.845Z,92806.92
2018-02-03T09:50:09.462Z,92802.75
2018-02-03T09:52:36.121Z,92807.05
2018-02-03T09:55:02.763Z,92792.08
2018-02-03T09:57:29.345Z,92791.89
2018-02-03T09:59:56.727Z,92784.10
2018-02-03T10:02:23.369Z,92784.83
2018-02-03T10:04:49.975Z,92773.80
2018-02-03T10:07:16.654Z,92771.32
2018-02-03T10:09:43.274Z,92766.26
2018-02-03T10:12:09.887Z,92771.26
2018-02-03T10:14:37.205Z,92762.89
2018-02-03T10:17:04.595Z,92757.23
2018-02-03T10:19:31.980Z,92756.74
2018-02-03T10:21:58.725Z,92750.52
2018-02-03T10:24:25.335Z,92749.73
2018-02-03T10:26:52.954Z,92750.89
2018-02-03T10:29:19.592Z,92747.11
2018-02-03T10:31:46.986Z,92749.97
2018-02-03T10:34:14.357Z,92753.15
2018-02-03T10:36:40.975Z,92755.34
2018-02-03T10:39:07.697Z,92752.09
2018-02-03T10:41:34.317Z,92752.96
2018-02-03T10:44:00.949Z,92758.93
2018-02-03T10:46:27.583Z,92757.48
2018-02-03T10:48:54.258Z,92766.53
2018-02-03T10:51:21.602Z,92756.67
2018-02-03T10:53:48.204Z,92751.72
2018-02-03T10:56:14.832Z,92747.56
2018-02-03T10:58:41.408Z,92743.41
2018-02-03T11:01:10.673Z,92739.47
2018-02-03T11:03:37.265Z,92740.11
2018-02-03T11:06:03.903Z,92742.70
2018-02-03T11:08:30.553Z,92743.30
2018-02-03T11:10:57.197Z,92740.89
2018-02-03T11:13:23.796Z,92732.46
2018-02-03T11:15:50.437Z,92728.88
2018-02-03T11:18:17.273Z,92727.23
2018-02-03T11:20:43.868Z,92731.36
2018-02-03T11:23:10.490Z,92721.11
2018-02-03T11:25:37.136Z,92719.70
2018-02-03T11:28:03.758Z,92734.28
2018-02-03T11:30:31.100Z,92719.00
2018-02-03T11:32:57.782Z,92731.04
2018-02-03T11:35:24.453Z,92727.64
2018-02-03T11:37:51.900Z,92724.58
2018-02-03T11:40:19.536Z,92727.88
2018-02-03T11:42:46.125Z,92729.23
2018-02-03T11:45:13.501Z,92726.91
2018-02-03T11:47:40.142Z,92736.95
2018-02-03T11:50:06.737Z,92738.30
2018-02-03T11:52:33.334Z,92735.08
2018-02-03T11:54:59.994Z,92736.67
2018-02-03T11:57:26.591Z,92742.93
2018-02-03T11:59:53.218Z,92738.02
2018-02-03T12:02:19.895Z,92744.45
2018-02-03T12:04:47.586Z,92744.98
2018-02-03T12:07:14.203Z,92741.77
2018-02-03T12:09:41.170Z,92746.23
2018-02-03T12:12:07.906Z,92746.11
2018-02-03T12:14:34.562Z,92747.59
2018-02-03T12:17:01.950Z,92749.84
2018-02-03T12:19:28.531Z,92751.56
2018-02-03T12:21:55.451Z,92745.98
2018-02-03T12:24:22.058Z,92751.23
2018-02-03T12:26:48.694Z,92740.73
2018-02-03T12:29:15.315Z,92738.54
2018-02-03T12:31:41.910Z,92732.44
2018-02-03T12:34:08.536Z,92735.73
2018-02-03T12:36:36.058Z,92729.95
2018-02-03T12:39:02.771Z,92730.06
2018-02-03T12:41:29.353Z,92731.27
2018-02-03T12:43:55.954Z,92731.92
2018-02-03T12:46:23.300Z,92724.58
2018-02-03T12:48:50.031Z,92727.23
2018-02-03T12:51:17.139Z,92715.97
2018-02-03T12:53:43.924Z,92713.47
2018-02-03T12:56:10.831Z,92720.12
2018-02-03T12:58:37.438Z,92716.55
2018-02-03T13:01:04.189Z,92715.83
2018-02-03T13:03:30.860Z,92711.56
2018-02-03T13:05:57.450Z,92709.78
2018-02-03T13:08:24.065Z,92703.30
2018-02-03T13:10:51.432Z,92700.03
2018-02-03T13:13:18.108Z,92699.16
2018-02-03T13:15:44.717Z,92696.31
2018-02-03T13:18:11.383Z,92696.89
2018-02-03T13:20:38.038Z,92702.64
2018-02-03T13:23:04.626Z,92698.36
2018-02-03T13:25:32.008Z,92696.44
2018-02-03T13:27:58.594Z,92693.59
2018-02-03T13:30:26.013Z,92693.59
2018-02-03T13:32:53.474Z,92694.80
2018-02-03T13:35:20.142Z,92695.28
2018-02-03T13:37:46.799Z,92694.09
2018-02-03T13:40:13.436Z,92695.34
2018-02-03T13:42:40.092Z,92690.08
2018-02-03T13:45:06.759Z,92687.84
2018-02-03T13:47:33.864Z,92691.61
2018-02-03T13:50:01.190Z,92687.62
2018-02-03T13:52:28.579Z,92685.88
2018-02-03T13:54:55.233Z,92683.70
2018-02-03T13:57:21.830Z,92691.72
2018-02-03T13:59:49.203Z,92695.59
2018-02-03T14:02:16.890Z,92694.31
2018-02-03T14:04:43.549Z,92699.59
2018-02-03T14:07:10.710Z,92695.36
2018-02-03T14:09:37.357Z,92689.84
2018-02-03T14:12:03.956Z,92698.71
2018-02-03T14:14:30.657Z,92695.23
2018-02-03T14:16:57.553Z,92697.67
2018-02-03T14:19:24.248Z,92692.20
2018-02-03T14:21:51.616Z,92691.22
2018-02-03T14:24:24.395Z,92687.52
2018-02-03T14:26:51.197Z,92686.63
2018-02-03T14:29:17.870Z,92681.15
2018-02-03T14:31:44.533Z,92684.15
2018-02-03T14:34:11.163Z,92690.23
2018-02-03T14:36:38.390Z,92687.78
2018-02-03T14:39:05.006Z,92696.80
2018-02-03T14:41:32.369Z,92698.23
2018-02-03T14:43:59.189Z,92702.94
2018-02-03T14:46:26.551Z,92698.07
2018-02-03T14:48:53.141Z,92697.75
2018-02-03T14:51:19.765Z,92699.81
2018-02-03T14:53:46.365Z,92693.34
2018-02-03T14:56:13.018Z,92694.41
2018-02-03T14:58:39.629Z,92686.89
2018-02-03T15:01:07.325Z,92684.26
2018-02-03T15:03:34.960Z,92695.98
2018-02-03T15:06:02.667Z,92699.69
2018-02-03T15:08:29.799Z,92701.58
2018-02-03T15:10:56.410Z,92695.14
2018-02-03T15:13:23.207Z,92696.50
2018-02-03T15:15:50.883Z,92698.52
2018-02-03T15:18:17.530Z,92705.22
2018-02-03T15:20:44.117Z,92709.02
2018-02-03T15:23:11.334Z,92709.97
2018-02-03T15:25:38.711Z,92711.44
2018-02-03T15:28:05.311Z,92708.50
2018-02-03T15:30:32.255Z,92720.99
2018-02-03T15:32:58.861Z,92715.69
2018-02-03T15:35:25.444Z,92716.22
2018-02-03T15:37:52.089Z,92714.50
2018-02-03T15:40:19.467Z,92710.33
2018-02-03T15:42:46.817Z,92712.65
2018-02-03T15:45:13.430Z,92711.31
2018-02-03T15:47:40.093Z,92722.70
2018-02-03T15:50:06.754Z,92724.98
2018-02-03T15:52:33.426Z,92722.38
2018-02-03T15:55:00.109Z,92727.66
2018-02-03T15:57:26.803Z,92726.22
2018-02-03T15:59:54.228Z,92730.81
2018-02-03T16:02:20.831Z,92714.73
2018-02-03T16:04:48.266Z,92719.23
2018-02-03T16:07:15.613Z,92715.88
2018-02-03T16:09:42.218Z,92723.80
2018-02-03T16:12:08.874Z,92725.09
2018-02-03T16:14:35.585Z,92729.77
2018-02-03T16:17:02.212Z,92732.48
2018-02-03T16:19:28.795Z,92731.22
2018-02-03T16:21:55.435Z,92733.59
2018-02-03T16:24:22.034Z,92729.55
2018-02-03T16:26:48.675Z,92722.80
2018-02-03T16:29:16.134Z,92721.35
2018-02-03T16:31:42.810Z,92724.38
2018-02-03T16:34:09.675Z,92725.19
2018-02-03T16:36:37.005Z,92726.07
2018-02-03T16:39:04.363Z,92728.03
2018-02-03T16:41:30.970Z,92738.10
2018-02-03T16:43:57.751Z,92733.84
2018-02-03T16:46:24.437Z,92737.21
2018-02-03T16:48:50.991Z,92741.70
2018-02-03T16:51:17.699Z,92742.59
2018-02-03T16:53:44.290Z,92740.20
2018-02-03T16:56:10.955Z,92750.97
2018-02-03T16:58:37.566Z,92748.53
2018-02-03T17:01:04.179Z,92754.38
2018-02-03T17:03:30.784Z,92751.62
2018-02-03T17:05:57.476Z,92753.97
2018-02-03T17:08:24.854Z,92754.73
2018-02-03T17:10:52.229Z,92753.09
2018-02-03T17:13:18.797Z,92752.08
2018-02-03T17:15:45.373Z,92759.23
2018-02-03T17:18:12.044Z,92761.30
2018-02-03T17:20:38.707Z,92763.81
2018-02-03T17:23:06.178Z,92769.06
2018-02-03T17:25:32.869Z,92774.97
2018-02-03T17:27:59.605Z,92770.95
2018-02-03T17:30:26.141Z,92771.00
2018-02-03T17:32:52.735Z,92776.91
2018-02-03T17:35:20.111Z,92777.88
2018-02-03T17:37:53.609Z,92775.13
2018-02-03T17:40:21.059Z,92781.36
2018-02-03T17:42:47.695Z,92780.14
2018-02-03T17:45:20.310Z,92782.23
2018-02-03T17:47:46.954Z,92789.25
2018-02-03T17:50:13.604Z,92778.20
2018-02-03T17:52:40.265Z,92779.86
2018-02-03T17:55:06.892Z,92784.86
2018-02-03T17:57:39.717Z,92784.88
2018-02-03T18:00:07.102Z,92781.63
2018-02-03T18:02:33.800Z,92785.59
2018-02-03T18:05:01.147Z,92784.02
2018-02-03T18:07:27.912Z,92782.31
2018-02-03T18:09:54.517Z,92786.64
2018-02-03T18:12:21.165Z,92786.09
2018-02-03T18:14:47.755Z,92792.75
2018-02-03T18:17:14.418Z,92782.22
2018-02-03T18:19:40.998Z,92787.31
2018-02-03T18:22:07.605Z,92788.44
2018-02-03T18:24:34.230Z,92786.77
2018-02-03T18:27:00.802Z,92787.27
2018-02-03T18:29:28.175Z,92784.91
2018-02-03T18:31:54.735Z,92784.77
2018-02-03T18:34:21.554Z,92789.70
2018-02-03T18:36:48.234Z,92783.45
2018-02-03T18:39:14.840Z,92789.69
2018-02-03T18:41:41.451Z,92784.67
2018-02-03T18:44:08.962Z,92786.88
2018-02-03T18:46:35.563Z,92788.38
2018-02-03T18:49:02.201Z,92788.22
2018-02-03T18:51:28.810Z,92788.95
2018-02-03T18:53:56.238Z,92795.42
2018-02-03T18:56:22.921Z,92796.73
2018-02-03T18:58:50.250Z,92800.19
2018-02-03T19:01:16.886Z,92803.65
2018-02-03T19:03:43.487Z,92803.30
2018-02-03T19:06:10.106Z,92810.11
2018-02-03T19:08:36.766Z,92813.69
2018-02-03T19:11:03.403Z,92808.63
2018-02-03T19:13:29.983Z,92816.08
2018-02-03T19:15:56.607Z,92816.88
2018-02-03T19:18:24.010Z,92811.71
2018-02-03T19:20:50.637Z,92819.13
2018-02-03T19:23:17.301Z,92818.44
2018-02-03T19:25:43.904Z,92818.13
2018-02-03T19:28:11.253Z,92817.09
2018-02-03T19:30:37.839Z,92826.84
2018-02-03T19:33:04.510Z,92825.92
2018-02-03T19:35:31.094Z,92824.05
2018-02-03T19:37:58.228Z,92830.75
2018-02-03T19:40:24.927Z,92826.73
2018-02-03T19:42:52.285Z,92826.67
2018-02-03T19:45:18.862Z,92834.99
2018-02-03T19:47:45.533Z,92830.95
2018-02-03T19:50:12.126Z,92834.94
2018-02-03T19:52:39.443Z,92839.22
2018-02-03T19:55:06.056Z,92832.69
2018-02-03T19:57:32.697Z,92830.75
2018-02-03T19:59:59.361Z,92830.19
2018-02-03T20:02:25.953Z,92825.50
2018-02-03T20:04:52.595Z,92831.88
2018-02-03T20:07:19.197Z,92832.03
2018-02-03T20:09:45.777Z,92835.20
2018-02-03T20:12:12.419Z,92832.77
2018-02-03T20:14:39.974Z,92829.44
2018-02-03T20:17:06.593Z,92825.59
2018-02-03T20:19:33.237Z,92828.39
2018-02-03T20:21:59.888Z,92830.17
2018-02-03T20:24:26.509Z,92831.16
2018-02-03T20:26:53.134Z,92837.27
2018-02-03T20:29:19.718Z,92836.56
2018-02-03T20:31:46.338Z,92836.31
2018-02-03T20:34:12.929Z,92846.80
2018-02-03T20:36:39.543Z,92846.98
2018-02-03T20:39:06.209Z,92841.88
2018-02-03T20:41:32.815Z,92842.03
2018-02-03T20:43:59.454Z,92841.16
2018-02-03T20:46:26.719Z,92843.16
2018-02-03T20:48:54.050Z,92841.08
2018-02-03T20:51:20.693Z,92842.68
2018-02-03T20:53:48.030Z,92839.31
2018-02-03T20:56:15.471Z,92837.59
2018-02-03T20:58:42.096Z,92845.84
2018-02-03T21:01:08.671Z,92844.95
2018-02-03T21:03:35.325Z,92847.47
2018-02-03T21:06:01.977Z,92852.88
2018-02-03T21:08:29.352Z,92857.55
2018-02-03T21:10:55.987Z,92859.33
2018-02-03T21:13:22.599Z,92855.53
2018-02-03T21:15:49.997Z,92858.12
2018-02-03T21:18:16.683Z,92858.85
2018-02-03T21:20:44.083Z,92868.53
2018-02-03T21:23:10.679Z,92866.36
2018-02-03T21:25:37.337Z,92871.85
2018-02-03T21:28:03.927Z,92872.59
2018-02-03T21:30:30.507Z,92870.30
2018-02-03T21:32:57.126Z,92869.42
2018-02-03T21:35:24.475Z,92871.93
2018-02-03T21:37:52.482Z,92872.41
2018-02-03T21:40:19.240Z,92871.59
2018-02-03T21:42:45.917Z,92874.35
2018-02-03T21:45:13.293Z,92879.20
2018-02-03T21:47:40.721Z,92878.62
2018-02-03T21:50:08.126Z,92881.28
2018-02-03T21:52:34.788Z,92878.78
2018-02-03T21:55:02.439Z,92883.56
2018-02-03T21:57:29.117Z,92883.96
2018-02-03T21:59:55.811Z,92890.16
2018-02-03T22:02:22.417Z,92893.31
2018-02-03T22:04:49.041Z,92889.27
2018-02-03T22:07:16.434Z,92896.69
2018-02-03T22:09:43.422Z,92897.09
2018-02-03T22:12:11.321Z,92905.67
2018-02-03T22:14:37.937Z,92907.80
2018-02-03T22:17:04.618Z,92910.01
2018-02-03T22:19:32.085Z,92905.80
2018-02-03T22:21:58.708Z,92910.39
2018-02-03T22:24:25.318Z,92905.37
2018-02-03T22:26:52.734Z,92905.49
2018-02-03T22:29:19.306Z,92910.02
2018-02-03T22:31:45.921Z,92911.42
2018-02-03T22:34:12.553Z,92922.48
2018-02-03T22:36:39.150Z,92917.07
2018-02-03T22:39:05.746Z,92918.91
2018-02-03T22:41:32.438Z,92916.41
2018-02-03T22:43:59.050Z,92917.59
2018-02-03T22:46:26.430Z,92925.92
2018-02-03T22:48:53.022Z,92930.67
2018-02-03T22:51:20.382Z,92934.06
2018-02-03T22:53:47.099Z,92935.72
2018-02-03T22:56:13.725Z,92932.98
2018-02-03T22:58:40.295Z,92929.94
2018-02-03T23:01:13.010Z,92935.65
2018-02-03T23:03:39.600Z,92938.70
2018-02-03T23:06:06.977Z,92942.86
2018-02-03T23:08:33.653Z,92947.02
2018-02-03T23:11:00.296Z,92945.73
2018-02-03T23:13:26.918Z,92942.93
2018-02-03T23:15:53.543Z,92947.19
2018-02-03T23:18:20.986Z,92946.00
2018-02-03T23:20:47.587Z,92947.20
2018-02-03T23:23:17.067Z,92948.48
2018-02-03T23:25:43.850Z,92948.08
2018-02-03T23:28:10.488Z,92956.30
2018-02-03T23:30:37.820Z,92958.78
2018-02-03T23:33:04.405Z,92962.02
2018-02-03T23:35:30.964Z,92964.64
2018-02-03T23:37:57.579Z,92969.75
2018-02-03T23:40:24.268Z,92970.91
2018-02-03T23:42:51.662Z,92972.82
2018-02-03T23:45:18.306Z,92971.78
2018-02-03T23:47:44.942Z,92973.63
2018-02-03T23:50:11.562Z,92977.16
2018-02-03T23:52:39.155Z,92975.25
2018-02-03T23:55:05.810Z,92984.95
2018-02-03T23:57:32.400Z,92983.88
2018-02-03T23:59:59.158Z,92981.50
